sensor_id;sensor_type;location;lat;lon;timestamp;P1;durP1;ratioP1;P2;durP2;ratioP2
41623;SDS011;27319;50.306;18.926;2023-02-19T15:08:14;21.83;;;11.02;;
41623;SDS011;27319;50.306;18.926;2023-02-19T15:11:23;22.17;;;11.15;;
41623;SDS011;27319;50.306;18.926;2023-02-19T15:14:25;23.25;;;10.50;;
41623;SDS011;27319;50.306;18.926;2023-02-19T15:17:31;19.48;;;9.95;;
41623;SDS011;27319;50.306;18.926;2023-02-19T15:20:35;24.30;;;10.95;;
41623;SDS011;27319;50.306;18.926;2023-02-19T15:23:37;18.83;;;10.95;;
41623;SDS011;27319;50.306;18.926;2023-02-19T15:26:39;13.75;;;8.02;;
41623;SDS011;27319;50.306;18.926;2023-02-19T15:29:44;22.55;;;10.95;;
41623;SDS011;27319;50.306;18.926;2023-02-19T15:32:58;14.60;;;7.57;;
41623;SDS011;27319;50.306;18.926;2023-02-19T15:36:01;26.90;;;13.48;;
41623;SDS011;27319;50.306;18.926;2023-02-19T15:39:05;26.38;;;12.55;;
41623;SDS011;27319;50.306;18.926;2023-02-19T15:42:06;20.77;;;10.07;;
41623;SDS011;27319;50.306;18.926;2023-02-19T15:45:19;25.00;;;13.20;;
41623;SDS011;27319;50.306;18.926;2023-02-19T15:48:26;32.05;;;17.83;;
41623;SDS011;27319;50.306;18.926;2023-02-19T15:52:37;25.20;;;12.30;;
41623;SDS011;27319;50.306;18.926;2023-02-19T15:56:28;44.20;;;24.02;;
41623;SDS011;27319;50.306;18.926;2023-02-19T16:00:38;30.52;;;16.67;;
41623;SDS011;27319;50.306;18.926;2023-02-19T16:04:34;24.42;;;11.90;;
41623;SDS011;27319;50.306;18.926;2023-02-19T16:07:35;19.42;;;10.30;;
41623;SDS011;27319;50.306;18.926;2023-02-19T16:10:36;26.00;;;12.70;;
41623;SDS011;27319;50.306;18.926;2023-02-19T16:13:38;26.85;;;13.30;;
41623;SDS011;27319;50.306;18.926;2023-02-19T16:16:39;21.52;;;10.45;;
41623;SDS011;27319;50.306;18.926;2023-02-19T16:19:43;19.42;;;7.82;;
41623;SDS011;27319;50.306;18.926;2023-02-19T16:22:48;16.08;;;9.27;;
41623;SDS011;27319;50.306;18.926;2023-02-19T16:25:56;31.85;;;15.80;;
41623;SDS011;27319;50.306;18.926;2023-02-19T16:29:01;18.10;;;9.65;;
41623;SDS011;27319;50.306;18.926;2023-02-19T16:32:03;19.73;;;11.20;;
41623;SDS011;27319;50.306;18.926;2023-02-19T16:35:33;17.10;;;9.90;;
41623;SDS011;27319;50.306;18.926;2023-02-19T16:38:38;27.10;;;11.80;;
41623;SDS011;27319;50.306;18.926;2023-02-19T16:44:47;23.33;;;9.43;;
41623;SDS011;27319;50.306;18.926;2023-02-19T16:47:48;20.30;;;8.63;;
41623;SDS011;27319;50.306;18.926;2023-02-19T16:50:50;10.15;;;5.43;;
41623;SDS011;27319;50.306;18.926;2023-02-19T16:53:52;15.88;;;8.50;;
41623;SDS011;27319;50.306;18.926;2023-02-19T16:56:52;18.50;;;9.63;;
41623;SDS011;27319;50.306;18.926;2023-02-19T16:59:54;19.00;;;9.63;;
41623;SDS011;27319;50.306;18.926;2023-02-19T17:03:01;22.75;;;9.07;;
41623;SDS011;27319;50.306;18.926;2023-02-19T17:06:55;28.27;;;12.15;;
41623;SDS011;27319;50.306;18.926;2023-02-19T17:09:55;24.48;;;10.68;;
41623;SDS011;27319;50.306;18.926;2023-02-19T17:12:57;22.45;;;11.68;;
41623;SDS011;27319;50.306;18.926;2023-02-19T17:15:57;26.95;;;12.70;;
41623;SDS011;27319;50.306;18.926;2023-02-19T17:18:59;23.55;;;10.75;;
41623;SDS011;27319;50.306;18.926;2023-02-19T17:21:59;25.05;;;11.30;;
41623;SDS011;27319;50.306;18.926;2023-02-19T17:25:01;39.35;;;16.85;;
41623;SDS011;27319;50.306;18.926;2023-02-19T17:28:01;33.42;;;14.75;;
41623;SDS011;27319;50.306;18.926;2023-02-19T17:31:03;41.13;;;14.63;;
41623;SDS011;27319;50.306;18.926;2023-02-19T17:34:03;31.83;;;15.25;;
41623;SDS011;27319;50.306;18.926;2023-02-19T17:37:04;34.47;;;14.30;;
41623;SDS011;27319;50.306;18.926;2023-02-19T17:40:16;33.83;;;16.40;;
41623;SDS011;27319;50.306;18.926;2023-02-19T17:43:21;33.95;;;17.02;;
41623;SDS011;27319;50.306;18.926;2023-02-19T17:46:23;31.38;;;15.48;;
41623;SDS011;27319;50.306;18.926;2023-02-19T17:49:25;33.38;;;15.48;;
41623;SDS011;27319;50.306;18.926;2023-02-19T17:52:26;38.78;;;18.42;;
41623;SDS011;27319;50.306;18.926;2023-02-19T17:55:29;37.28;;;16.25;;
41623;SDS011;27319;50.306;18.926;2023-02-19T17:58:29;37.58;;;16.05;;
41623;SDS011;27319;50.306;18.926;2023-02-19T18:01:30;31.80;;;15.63;;
41623;SDS011;27319;50.306;18.926;2023-02-19T18:04:31;35.40;;;16.73;;
41623;SDS011;27319;50.306;18.926;2023-02-19T18:07:33;33.83;;;14.95;;
41623;SDS011;27319;50.306;18.926;2023-02-19T18:10:35;31.75;;;14.30;;
41623;SDS011;27319;50.306;18.926;2023-02-19T18:13:36;28.60;;;11.75;;
41623;SDS011;27319;50.306;18.926;2023-02-19T18:16:42;29.75;;;12.85;;
41623;SDS011;27319;50.306;18.926;2023-02-19T18:19:44;28.88;;;13.85;;
41623;SDS011;27319;50.306;18.926;2023-02-19T18:22:45;20.42;;;10.55;;
41623;SDS011;27319;50.306;18.926;2023-02-19T18:25:47;29.25;;;12.02;;
41623;SDS011;27319;50.306;18.926;2023-02-19T18:28:47;25.98;;;11.93;;
41623;SDS011;27319;50.306;18.926;2023-02-19T18:31:49;33.08;;;13.45;;
41623;SDS011;27319;50.306;18.926;2023-02-19T18:34:50;28.27;;;13.45;;
41623;SDS011;27319;50.306;18.926;2023-02-19T18:37:55;27.10;;;12.65;;
41623;SDS011;27319;50.306;18.926;2023-02-19T18:40:56;35.70;;;13.52;;
41623;SDS011;27319;50.306;18.926;2023-02-19T18:44:57;34.78;;;15.90;;
41623;SDS011;27319;50.306;18.926;2023-02-19T18:48:58;35.10;;;14.82;;
41623;SDS011;27319;50.306;18.926;2023-02-19T18:52:19;28.60;;;13.38;;
41623;SDS011;27319;50.306;18.926;2023-02-19T18:55:21;28.85;;;13.57;;
41623;SDS011;27319;50.306;18.926;2023-02-19T18:58:22;28.27;;;11.90;;
41623;SDS011;27319;50.306;18.926;2023-02-19T19:01:25;33.78;;;13.00;;
41623;SDS011;27319;50.306;18.926;2023-02-19T19:04:26;36.63;;;14.13;;
41623;SDS011;27319;50.306;18.926;2023-02-19T19:07:27;38.17;;;16.20;;
41623;SDS011;27319;50.306;18.926;2023-02-19T19:10:28;36.33;;;14.38;;
41623;SDS011;27319;50.306;18.926;2023-02-19T19:13:30;32.70;;;13.77;;
41623;SDS011;27319;50.306;18.926;2023-02-19T19:16:30;31.00;;;14.85;;
41623;SDS011;27319;50.306;18.926;2023-02-19T19:19:31;35.80;;;14.85;;
41623;SDS011;27319;50.306;18.926;2023-02-19T19:22:32;39.72;;;17.55;;
41623;SDS011;27319;50.306;18.926;2023-02-19T19:25:33;35.50;;;17.23;;
41623;SDS011;27319;50.306;18.926;2023-02-19T19:28:34;29.77;;;13.50;;
41623;SDS011;27319;50.306;18.926;2023-02-19T19:31:35;37.60;;;16.75;;
41623;SDS011;27319;50.306;18.926;2023-02-19T19:34:36;31.35;;;15.82;;
41623;SDS011;27319;50.306;18.926;2023-02-19T19:37:37;43.60;;;20.20;;
41623;SDS011;27319;50.306;18.926;2023-02-19T19:40:38;59.28;;;24.90;;
41623;SDS011;27319;50.306;18.926;2023-02-19T19:43:41;49.25;;;22.42;;
41623;SDS011;27319;50.306;18.926;2023-02-19T19:46:43;47.15;;;20.40;;
41623;SDS011;27319;50.306;18.926;2023-02-19T19:49:45;43.28;;;19.95;;
41623;SDS011;27319;50.306;18.926;2023-02-19T19:52:46;37.03;;;16.52;;
41623;SDS011;27319;50.306;18.926;2023-02-19T19:55:47;32.47;;;16.00;;
41623;SDS011;27319;50.306;18.926;2023-02-19T19:58:48;28.63;;;13.05;;
41623;SDS011;27319;50.306;18.926;2023-02-19T20:01:49;37.38;;;15.60;;
41623;SDS011;27319;50.306;18.926;2023-02-19T20:05:50;32.00;;;14.15;;
41623;SDS011;27319;50.306;18.926;2023-02-19T20:08:51;38.90;;;17.80;;
41623;SDS011;27319;50.306;18.926;2023-02-19T20:11:52;35.67;;;16.85;;
41623;SDS011;27319;50.306;18.926;2023-02-19T20:14:53;34.47;;;16.80;;
41623;SDS011;27319;50.306;18.926;2023-02-19T20:17:54;38.97;;;19.70;;
41623;SDS011;27319;50.306;18.926;2023-02-19T20:20:55;36.85;;;18.10;;
41623;SDS011;27319;50.306;18.926;2023-02-19T20:23:56;37.25;;;15.15;;
41623;SDS011;27319;50.306;18.926;2023-02-19T20:27:00;41.17;;;17.80;;
41623;SDS011;27319;50.306;18.926;2023-02-19T20:30:02;47.85;;;21.08;;
41623;SDS011;27319;50.306;18.926;2023-02-19T20:33:03;48.38;;;22.45;;
41623;SDS011;27319;50.306;18.926;2023-02-19T20:36:05;48.60;;;20.10;;
41623;SDS011;27319;50.306;18.926;2023-02-19T20:39:06;36.50;;;18.70;;
41623;SDS011;27319;50.306;18.926;2023-02-19T20:42:08;50.33;;;21.65;;
41623;SDS011;27319;50.306;18.926;2023-02-19T20:45:08;49.30;;;22.08;;
41623;SDS011;27319;50.306;18.926;2023-02-19T20:48:09;41.75;;;18.17;;
41623;SDS011;27319;50.306;18.926;2023-02-19T20:51:10;50.33;;;18.98;;
41623;SDS011;27319;50.306;18.926;2023-02-19T20:54:12;37.20;;;16.95;;
41623;SDS011;27319;50.306;18.926;2023-02-19T20:57:13;37.47;;;16.98;;
41623;SDS011;27319;50.306;18.926;2023-02-19T21:00:14;43.13;;;20.42;;
41623;SDS011;27319;50.306;18.926;2023-02-19T21:03:16;50.67;;;18.92;;
41623;SDS011;27319;50.306;18.926;2023-02-19T21:06:17;44.92;;;19.65;;
41623;SDS011;27319;50.306;18.926;2023-02-19T21:09:18;45.55;;;17.70;;
41623;SDS011;27319;50.306;18.926;2023-02-19T21:12:20;44.90;;;17.23;;
41623;SDS011;27319;50.306;18.926;2023-02-19T21:15:22;40.28;;;15.80;;
41623;SDS011;27319;50.306;18.926;2023-02-19T21:18:23;47.72;;;19.00;;
41623;SDS011;27319;50.306;18.926;2023-02-19T21:21:24;32.47;;;13.85;;
41623;SDS011;27319;50.306;18.926;2023-02-19T21:24:26;31.58;;;14.73;;
41623;SDS011;27319;50.306;18.926;2023-02-19T21:28:26;30.63;;;13.73;;
41623;SDS011;27319;50.306;18.926;2023-02-19T21:31:41;38.75;;;16.90;;
41623;SDS011;27319;50.306;18.926;2023-02-19T21:35:37;36.78;;;16.13;;
41623;SDS011;27319;50.306;18.926;2023-02-19T21:39:09;33.80;;;15.48;;
41623;SDS011;27319;50.306;18.926;2023-02-19T21:42:13;39.28;;;16.00;;
41623;SDS011;27319;50.306;18.926;2023-02-19T21:45:14;38.47;;;15.65;;
41623;SDS011;27319;50.306;18.926;2023-02-19T21:48:15;38.33;;;17.27;;
41623;SDS011;27319;50.306;18.926;2023-02-19T21:51:16;32.13;;;15.60;;
41623;SDS011;27319;50.306;18.926;2023-02-19T21:54:19;36.47;;;16.30;;
41623;SDS011;27319;50.306;18.926;2023-02-19T21:58:19;38.25;;;17.20;;
41623;SDS011;27319;50.306;18.926;2023-02-19T22:02:20;30.00;;;12.90;;
41623;SDS011;27319;50.306;18.926;2023-02-19T22:06:24;31.15;;;12.57;;
41623;SDS011;27319;50.306;18.926;2023-02-19T22:09:26;32.22;;;11.65;;
41623;SDS011;27319;50.306;18.926;2023-02-19T22:12:27;24.35;;;11.77;;
41623;SDS011;27319;50.306;18.926;2023-02-19T22:15:28;28.65;;;12.45;;
41623;SDS011;27319;50.306;18.926;2023-02-19T22:18:29;32.50;;;15.38;;
41623;SDS011;27319;50.306;18.926;2023-02-19T22:21:30;29.50;;;14.68;;
41623;SDS011;27319;50.306;18.926;2023-02-19T22:25:30;43.97;;;17.13;;
41623;SDS011;27319;50.306;18.926;2023-02-19T22:29:31;32.75;;;14.10;;
41623;SDS011;27319;50.306;18.926;2023-02-19T22:33:32;32.33;;;15.13;;
41623;SDS011;27319;50.306;18.926;2023-02-19T22:36:33;29.73;;;11.90;;
41623;SDS011;27319;50.306;18.926;2023-02-19T22:39:36;27.58;;;11.70;;
41623;SDS011;27319;50.306;18.926;2023-02-19T22:42:37;37.78;;;15.43;;
41623;SDS011;27319;50.306;18.926;2023-02-19T22:45:38;38.88;;;16.45;;
41623;SDS011;27319;50.306;18.926;2023-02-19T22:48:40;37.92;;;16.38;;
41623;SDS011;27319;50.306;18.926;2023-02-19T22:51:54;43.97;;;17.38;;
41623;SDS011;27319;50.306;18.926;2023-02-19T22:54:58;29.65;;;13.00;;
41623;SDS011;27319;50.306;18.926;2023-02-19T22:57:59;32.10;;;12.75;;
41623;SDS011;27319;50.306;18.926;2023-02-19T23:01:00;26.52;;;12.75;;
41623;SDS011;27319;50.306;18.926;2023-02-19T23:04:01;29.48;;;10.93;;
41623;SDS011;27319;50.306;18.926;2023-02-19T23:07:02;30.15;;;12.02;;
41623;SDS011;27319;50.306;18.926;2023-02-19T23:10:05;22.92;;;11.63;;
41623;SDS011;27319;50.306;18.926;2023-02-19T23:13:06;28.23;;;10.07;;
41623;SDS011;27319;50.306;18.926;2023-02-19T23:16:07;23.08;;;10.80;;
41623;SDS011;27319;50.306;18.926;2023-02-19T23:19:08;23.38;;;9.68;;
41623;SDS011;27319;50.306;18.926;2023-02-19T23:22:11;21.52;;;9.38;;
41623;SDS011;27319;50.306;18.926;2023-02-19T23:25:11;25.13;;;10.48;;
41623;SDS011;27319;50.306;18.926;2023-02-19T23:28:13;30.00;;;12.93;;
41623;SDS011;27319;50.306;18.926;2023-02-19T23:31:13;24.48;;;9.82;;
41623;SDS011;27319;50.306;18.926;2023-02-19T23:34:15;23.23;;;9.77;;
41623;SDS011;27319;50.306;18.926;2023-02-19T23:37:17;18.60;;;8.07;;
41623;SDS011;27319;50.306;18.926;2023-02-19T23:40:18;19.08;;;9.32;;
41623;SDS011;27319;50.306;18.926;2023-02-19T23:43:19;23.48;;;9.27;;
41623;SDS011;27319;50.306;18.926;2023-02-19T23:46:20;23.05;;;8.55;;
41623;SDS011;27319;50.306;18.926;2023-02-19T23:49:21;17.58;;;7.18;;
41623;SDS011;27319;50.306;18.926;2023-02-19T23:52:22;17.40;;;8.68;;
41623;SDS011;27319;50.306;18.926;2023-02-19T23:55:23;19.52;;;6.60;;
41623;SDS011;27319;50.306;18.926;2023-02-19T23:58:25;13.80;;;7.22;;
